Time;durP1;ratioP1;P1;durP2;ratioP2;P2;SDS_P1;SDS_P2;PMS_P1;PMS_P2;Temp;Humidity;BMP_temperature;BMP_pressure;BME280_temperature;BME280_humidity;BME280_pressure;Samples;Min_cycle;Max_cycle;Signal;HPM_P1;HPM_P2
2022/06/15 00:00:11;;;;;;;24.17;7.20;;;;;;;12.34;100.00;96658.59;5033998;28;20458;-74
2022/06/15 00:02:37;;;;;;;33.87;8.53;;;;;;;12.46;100.00;96652.56;5029852;28;20820;-74
2022/06/15 00:05:04;;;;;;;29.97;8.20;;;;;;;12.17;100.00;96653.50;5013422;28;20442;-74
2022/06/15 00:07:31;;;;;;;24.27;8.20;;;;;;;11.89;100.00;96643.50;5039485;28;20491;-74
2022/06/15 00:09:58;;;;;;;32.03;7.60;;;;;;;11.96;100.00;96635.00;5049499;28;20462;-74
2022/06/15 00:12:25;;;;;;;35.93;7.27;;;;;;;12.08;100.00;96642.97;5049520;28;20451;-74
2022/06/15 00:14:51;;;;;;;25.17;6.00;;;;;;;12.02;100.00;96649.56;5049536;28;20469;-74
2022/06/15 00:17:18;;;;;;;21.27;7.37;;;;;;;11.91;100.00;96629.91;5032980;28;20469;-74
2022/06/15 00:19:45;;;;;;;24.20;6.90;;;;;;;12.28;100.00;96646.66;5049210;28;20462;-74
2022/06/15 00:22:12;;;;;;;27.50;9.30;;;;;;;12.35;100.00;96647.66;5049542;28;20528;-74
2022/06/15 00:24:39;;;;;;;10.30;6.30;;;;;;;12.32;100.00;96634.31;5031421;28;20438;-74
2022/06/15 00:27:05;;;;;;;12.83;7.33;;;;;;;12.43;100.00;96669.91;5031790;28;20434;-74
2022/06/15 00:29:37;;;;;;;17.80;6.07;;;;;;;12.18;100.00;96647.88;5020324;28;20484;-74
2022/06/15 00:32:06;;;;;;;16.93;7.97;;;;;;;11.89;100.00;96642.72;5051092;28;20461;-74
2022/06/15 00:34:33;;;;;;;21.03;6.40;;;;;;;12.20;100.00;96658.91;5029769;28;20442;-74
2022/06/15 00:37:04;;;;;;;28.80;7.30;;;;;;;12.17;100.00;96640.25;5029316;28;20450;-74
2022/06/15 00:39:33;;;;;;;23.57;8.07;;;;;;;11.76;100.00;96615.38;5029299;28;20497;-74
2022/06/15 00:42:02;;;;;;;27.43;7.13;;;;;;;11.65;100.00;96660.03;5030638;28;20430;-74
2022/06/15 00:44:34;;;;;;;35.10;8.90;;;;;;;11.55;100.00;96655.88;5029282;28;20493;-74
2022/06/15 00:47:07;;;;;;;22.87;8.77;;;;;;;11.79;100.00;96657.91;5029249;28;20434;-74
2022/06/15 00:49:56;;;;;;;15.70;6.47;;;;;;;11.55;100.00;96637.34;5023014;28;20504;-74
2022/06/15 00:52:40;;;;;;;18.77;7.60;;;;;;;11.71;100.00;96639.41;5049131;28;20448;-74
2022/06/15 00:55:15;;;;;;;30.97;8.23;;;;;;;11.81;100.00;96639.03;5050468;28;20467;-74
2022/06/15 00:57:42;;;;;;;34.43;8.10;;;;;;;11.75;100.00;96659.63;5048894;28;20475;-74
2022/06/15 01:00:12;;;;;;;31.67;8.70;;;;;;;11.47;100.00;96638.19;5046764;28;20473;-74
2022/06/15 01:02:40;;;;;;;26.20;7.53;;;;;;;11.63;100.00;96629.66;5012854;28;20442;-74
2022/06/15 01:05:18;;;;;;;24.67;8.03;;;;;;;11.65;100.00;96657.38;5032981;28;20454;-74
2022/06/15 01:08:04;;;;;;;29.13;7.60;;;;;;;11.64;100.00;96647.09;5033043;28;20976;-74
2022/06/15 01:11:03;;;;;;;26.20;8.37;;;;;;;11.57;100.00;96655.56;5032928;28;20462;-74
2022/06/15 01:13:58;;;;;;;32.53;8.37;;;;;;;11.75;100.00;96653.53;5032918;28;20442;-74
2022/06/15 01:16:54;;;;;;;32.37;9.00;;;;;;;11.67;100.00;96659.69;5032826;28;20437;-74
2022/06/15 01:19:55;;;;;;;31.90;9.30;;;;;;;11.24;100.00;96645.69;5011477;28;20572;-74
2022/06/15 01:22:33;;;;;;;27.87;8.63;;;;;;;11.23;100.00;96660.03;5016370;28;20877;-74
2022/06/15 01:25:23;;;;;;;33.70;8.73;;;;;;;11.36;100.00;96652.16;5016999;28;20525;-74
2022/06/15 01:28:14;;;;;;;23.00;8.80;;;;;;;11.00;100.00;96648.19;5022059;28;20434;-74
2022/06/15 01:31:19;;;;;;;31.73;8.40;;;;;;;11.18;100.00;96643.53;5030017;28;20461;-74
2022/06/15 01:33:54;;;;;;;22.90;6.93;;;;;;;11.04;100.00;96648.31;5033892;28;20422;-74
2022/06/15 01:36:28;;;;;;;43.87;10.17;;;;;;;10.84;100.00;96650.59;5032373;28;21127;-74
2022/06/15 01:39:05;;;;;;;31.57;9.03;;;;;;;10.70;100.00;96650.06;5032242;28;20532;-74
2022/06/15 01:41:38;;;;;;;35.27;8.93;;;;;;;10.78;100.00;96651.84;5016091;28;20438;-74
2022/06/15 01:44:08;;;;;;;28.53;8.20;;;;;;;11.01;100.00;96652.38;5032260;28;20438;-74
2022/06/15 01:46:40;;;;;;;20.77;7.80;;;;;;;10.85;100.00;96624.94;5032290;28;20565;-74
2022/06/15 01:49:16;;;;;;;35.40;7.47;;;;;;;10.75;100.00;96630.56;5032194;28;20470;-74
2022/06/15 01:51:46;;;;;;;29.40;8.80;;;;;;;10.70;100.00;96620.97;5032110;28;20452;-74
2022/06/15 01:54:25;;;;;;;30.00;9.43;;;;;;;10.94;100.00;96642.28;5032074;28;20438;-74
2022/06/15 01:56:55;;;;;;;34.10;8.87;;;;;;;10.56;100.00;96631.75;5032062;28;20470;-74
2022/06/15 01:59:37;;;;;;;24.20;6.80;;;;;;;10.75;100.00;96655.16;5015570;28;20477;-74
2022/06/15 02:02:18;;;;;;;21.20;7.03;;;;;;;10.62;100.00;96651.63;5021189;28;20441;-74
2022/06/15 02:04:54;;;;;;;24.77;8.20;;;;;;;10.15;100.00;96600.63;5052036;28;20487;-74
2022/06/15 02:07:43;;;;;;;30.47;8.60;;;;;;;10.39;100.00;96644.25;5035387;28;20507;-74
2022/06/15 02:10:20;;;;;;;10.20;5.07;;;;;;;10.55;100.00;96632.84;5051642;28;20861;-74
2022/06/15 02:13:07;;;;;;;14.97;6.07;;;;;;;10.35;100.00;96642.25;5021884;28;20833;-74
2022/06/15 02:15:41;;;;;;;20.70;7.60;;;;;;;10.37;100.00;96641.94;5030844;28;20465;-74
2022/06/15 02:18:12;;;;;;;15.20;5.77;;;;;;;10.43;100.00;96639.91;5015184;28;20497;-74
2022/06/15 02:20:45;;;;;;;25.27;8.30;;;;;;;10.64;100.00;96641.50;5031682;28;20463;-74
2022/06/15 02:23:15;;;;;;;24.90;7.00;;;;;;;10.28;100.00;96635.88;5015127;28;20439;-74
2022/06/15 02:25:46;;;;;;;20.40;6.60;;;;;;;9.97;100.00;96599.13;5031649;28;20438;-74
2022/06/15 02:28:14;;;;;;;19.83;7.60;;;;;;;10.06;100.00;96603.31;5031697;28;20422;-74
2022/06/15 02:30:44;;;;;;;23.30;7.60;;;;;;;10.28;100.00;96636.69;5041639;28;20472;-74
2022/06/15 02:33:12;;;;;;;6.50;5.33;;;;;;;10.27;100.00;96635.09;5034901;28;20561;-74
2022/06/15 02:35:41;;;;;;;11.37;5.10;;;;;;;10.22;100.00;96634.53;5019831;28;20438;-74
2022/06/15 02:38:12;;;;;;;16.80;6.20;;;;;;;10.11;100.00;96630.63;5031220;28;20520;-74
2022/06/15 02:40:39;;;;;;;18.60;7.10;;;;;;;10.13;100.00;96607.31;5030610;28;20489;-74
2022/06/15 02:43:07;;;;;;;13.03;6.10;;;;;;;10.23;100.00;96626.28;5051271;28;20444;-74
2022/06/15 02:45:38;;;;;;;15.40;6.87;;;;;;;10.04;100.00;96610.78;5034580;28;20881;-74
2022/06/15 02:48:07;;;;;;;11.47;6.00;;;;;;;10.24;100.00;96630.47;5034598;28;20480;-74
2022/06/15 02:51:02;;;;;;;15.30;7.90;;;;;;;10.05;100.00;96624.75;5033338;28;20469;-74
2022/06/15 02:53:34;;;;;;;11.43;5.37;;;;;;;10.11;100.00;96593.66;5029935;28;20544;-74
2022/06/15 02:56:02;;;;;;;12.70;5.40;;;;;;;10.18;100.00;96599.22;5050870;28;21081;-74
2022/06/15 02:58:40;;;;;;;8.87;5.10;;;;;;;10.21;100.00;96625.00;5050613;28;20848;-74
2022/06/15 03:01:07;;;;;;;19.20;5.87;;;;;;;10.14;100.00;96622.84;5050846;28;20445;-74
2022/06/15 03:03:37;;;;;;;9.00;5.10;;;;;;;10.22;100.00;96627.38;5034468;28;20469;-74
2022/06/15 03:06:16;;;;;;;10.53;5.73;;;;;;;10.14;100.00;96612.28;5035487;28;20793;-74
2022/06/15 03:08:44;;;;;;;12.37;5.90;;;;;;;10.14;100.00;96632.63;5034316;28;20488;-74
2022/06/15 03:11:25;;;;;;;13.63;5.77;;;;;;;10.12;100.00;96621.63;5035498;28;20441;-74
2022/06/15 03:13:55;;;;;;;11.93;6.43;;;;;;;9.97;100.00;96631.59;5050556;28;20916;-74
2022/06/15 03:16:22;;;;;;;10.50;5.40;;;;;;;9.67;100.00;96619.38;5050429;28;20433;-74
2022/06/15 03:18:50;;;;;;;9.83;5.57;;;;;;;9.75;100.00;96611.47;5034084;28;20940;-74
2022/06/15 03:21:17;;;;;;;8.53;5.60;;;;;;;9.61;100.00;96615.34;5018225;28;21107;-74
2022/06/15 03:23:44;;;;;;;9.83;5.00;;;;;;;9.69;100.00;96628.53;5030650;28;20568;-74
2022/06/15 03:26:13;;;;;;;10.93;6.17;;;;;;;10.02;100.00;96626.16;5030360;28;20857;-74
2022/06/15 03:28:40;;;;;;;11.03;6.97;;;;;;;9.75;100.00;96600.91;5029221;28;20840;-74
2022/06/15 03:31:11;;;;;;;12.47;5.27;;;;;;;9.91;100.00;96635.50;5046628;28;21100;-74
2022/06/15 03:33:39;;;;;;;7.70;4.87;;;;;;;9.91;100.00;96638.16;5033844;28;20441;-74
2022/06/15 03:36:10;;;;;;;8.50;4.90;;;;;;;9.68;100.00;96594.53;5028687;28;20438;-74
2022/06/15 03:38:37;;;;;;;11.40;5.77;;;;;;;9.82;100.00;96610.19;5030097;28;20466;-74
2022/06/15 03:41:13;;;;;;;12.57;5.73;;;;;;;10.02;100.00;96631.44;5030193;28;20492;-74
2022/06/15 03:43:40;;;;;;;5.67;5.07;;;;;;;9.98;100.00;96638.44;5013851;28;20521;-74
2022/06/15 03:46:09;;;;;;;8.63;4.83;;;;;;;10.20;100.00;96626.09;5030151;28;20449;-74
2022/06/15 03:48:39;;;;;;;19.27;6.40;;;;;;;10.25;100.00;96644.44;5029917;28;20457;-74
2022/06/15 03:51:06;;;;;;;8.77;5.57;;;;;;;10.03;100.00;96622.44;5030061;28;20863;-74
2022/06/15 03:53:42;;;;;;;6.50;5.73;;;;;;;10.02;100.00;96614.81;5029870;28;20441;-74
2022/06/15 03:56:09;;;;;;;8.77;5.33;;;;;;;10.15;100.00;96613.84;5029913;28;20529;-74
2022/06/15 03:58:36;;;;;;;5.23;4.13;;;;;;;10.28;100.00;96634.03;5013430;28;20466;-74
2022/06/15 04:01:03;;;;;;;6.17;5.50;;;;;;;9.86;100.00;96606.59;5039877;28;20473;-74
2022/06/15 04:03:31;;;;;;;7.03;4.73;;;;;;;9.92;100.00;96634.41;5033496;28;20437;-74
2022/06/15 04:06:12;;;;;;;7.00;5.10;;;;;;;10.08;100.00;96613.56;5037136;28;20442;-73
2022/06/15 04:08:43;;;;;;;11.97;5.10;;;;;;;10.35;100.00;96633.53;5016509;28;20505;-73
2022/06/15 04:14:19;;;;;;;7.40;5.73;;;;;;;10.36;100.00;96624.53;5029664;28;20496;-73
2022/06/15 04:16:57;;;;;;;7.70;5.50;;;;;;;10.64;100.00;96627.50;5014919;28;20465;-74
2022/06/15 04:19:42;;;;;;;12.70;5.67;;;;;;;10.89;100.00;96636.41;5029470;28;20489;-74
2022/06/15 04:22:10;;;;;;;8.67;6.20;;;;;;;11.03;100.00;96638.81;5029511;28;20537;-74
2022/06/15 04:24:39;;;;;;;22.43;6.37;;;;;;;10.87;100.00;96633.31;5013149;28;20521;-74
2022/06/15 04:27:06;;;;;;;16.10;8.40;;;;;;;10.46;100.00;96636.63;5029496;28;20786;-74
2022/06/15 04:29:33;;;;;;;11.27;5.73;;;;;;;10.76;100.00;96643.47;5014585;28;20453;-74
2022/06/15 04:32:00;;;;;;;11.57;5.70;;;;;;;11.01;100.00;96617.97;5049346;28;20445;-74
2022/06/15 04:34:29;;;;;;;11.23;5.87;;;;;;;11.07;100.00;96621.19;5049353;28;20441;-74
2022/06/15 04:36:56;;;;;;;17.53;6.07;;;;;;;11.04;100.00;96616.53;5049452;28;20448;-74
2022/06/15 04:39:24;;;;;;;13.90;5.83;;;;;;;11.43;100.00;96636.50;5032250;28;20920;-74
2022/06/15 04:41:52;;;;;;;7.40;6.00;;;;;;;11.70;100.00;96656.38;5049134;28;20544;-74
2022/06/15 04:44:18;;;;;;;11.80;6.40;;;;;;;11.77;100.00;96628.28;5032668;28;20503;-74
2022/06/15 04:46:49;;;;;;;19.43;7.40;;;;;;;11.96;100.00;96624.38;5033396;28;20434;-74
2022/06/15 04:49:19;;;;;;;8.90;6.90;;;;;;;12.04;100.00;96621.66;5049019;28;20453;-74
2022/06/15 04:51:50;;;;;;;10.33;6.03;;;;;;;12.51;100.00;96653.09;5049095;28;20797;-74
2022/06/15 04:54:37;;;;;;;10.90;6.07;;;;;;;12.13;100.00;96640.09;5032743;28;20503;-74
2022/06/15 04:57:04;;;;;;;13.70;6.10;;;;;;;12.39;100.00;96637.19;5007324;28;20984;-74
2022/06/15 04:59:31;;;;;;;8.67;6.83;;;;;;;12.64;100.00;96653.88;5008825;28;21114;-75
2022/06/15 05:01:58;;;;;;;9.17;4.87;;;;;;;12.65;100.00;96642.16;4993362;28;20475;-74
2022/06/15 05:04:26;;;;;;;13.53;6.23;;;;;;;13.03;100.00;96660.41;4992329;28;20439;-74
2022/06/15 05:06:54;;;;;;;9.13;6.23;;;;;;;13.21;100.00;96663.63;4991696;28;20447;-74
2022/06/15 05:09:21;;;;;;;8.67;5.90;;;;;;;13.22;100.00;96638.59;4972309;28;20463;-74
2022/06/15 05:11:49;;;;;;;7.87;4.90;;;;;;;13.30;100.00;96632.41;5003590;28;20471;-74
2022/06/15 05:14:17;;;;;;;5.83;4.20;;;;;;;13.52;100.00;96660.38;4996800;28;20438;-74
2022/06/15 05:16:47;;;;;;;7.70;4.93;;;;;;;13.77;100.00;96663.72;5011104;28;20854;-74
2022/06/15 05:19:17;;;;;;;7.60;5.23;;;;;;;13.69;100.00;96665.41;5011534;28;20481;-74
2022/06/15 05:21:46;;;;;;;10.27;4.40;;;;;;;13.88;100.00;96662.09;4991515;28;20446;-74
2022/06/15 05:24:15;;;;;;;6.53;5.30;;;;;;;13.68;100.00;96671.81;4991627;28;20535;-74
2022/06/15 05:27:05;;;;;;;5.90;4.57;;;;;;;13.58;100.00;96640.41;4992117;28;20442;-74
2022/06/15 05:29:35;;;;;;;7.23;5.30;;;;;;;13.83;100.00;96665.00;4972250;28;20464;-74
2022/06/15 05:32:13;;;;;;;5.37;4.83;;;;;;;14.04;100.00;96652.31;4983372;28;20578;-74
2022/06/15 05:34:39;;;;;;;6.70;6.13;;;;;;;14.27;100.00;96647.16;5036691;28;20442;-74
2022/06/15 05:37:07;;;;;;;5.10;4.60;;;;;;;14.59;100.00;96650.66;5048734;28;20441;-74
2022/06/15 05:39:36;;;;;;;4.97;4.27;;;;;;;14.84;100.00;96674.44;5048503;28;20496;-74
2022/06/15 05:42:04;;;;;;;4.00;3.67;;;;;;;15.02;100.00;96659.63;5048659;28;20863;-74
2022/06/15 05:47:00;;;;;;;3.87;3.50;;;;;;;15.21;100.00;96654.34;5048865;28;20837;-74
2022/06/15 05:49:41;;;;;;;6.90;3.77;;;;;;;15.42;100.00;96667.38;5048562;28;20572;-74
2022/06/15 05:52:10;;;;;;;4.17;3.77;;;;;;;15.76;100.00;96678.34;5035814;28;20476;-74
2022/06/15 05:54:40;;;;;;;4.30;3.90;;;;;;;16.00;100.00;96674.63;5041327;28;20444;-74
2022/06/15 05:57:11;;;;;;;4.47;4.00;;;;;;;16.34;100.00;96681.00;5036158;28;20448;-74
2022/06/15 05:59:44;;;;;;;3.20;3.00;;;;;;;16.72;100.00;96670.22;5036038;28;20471;-74
2022/06/15 06:02:12;;;;;;;4.10;3.30;;;;;;;16.88;95.94;96675.44;5052114;28;21099;-74
2022/06/15 06:04:39;;;;;;;5.30;3.37;;;;;;;16.90;91.54;96672.41;5035450;28;20465;-74
2022/06/15 06:07:06;;;;;;;5.40;3.30;;;;;;;17.01;91.99;96674.13;5051850;28;20456;-74
2022/06/15 06:09:33;;;;;;;6.70;3.13;;;;;;;16.91;90.44;96671.28;5053279;28;20448;-74
2022/06/15 06:12:00;;;;;;;4.47;3.90;;;;;;;17.14;88.74;96678.13;5027186;28;20478;-74
2022/06/15 06:14:26;;;;;;;3.50;3.20;;;;;;;17.41;88.22;96684.22;5032008;28;20446;-74
2022/06/15 06:16:53;;;;;;;6.37;3.47;;;;;;;17.77;84.91;96691.97;5033023;28;20488;-74
2022/06/15 06:19:20;;;;;;;5.03;3.13;;;;;;;18.06;83.96;96704.56;5015169;28;20482;-74
2022/06/15 06:21:47;;;;;;;3.53;3.10;;;;;;;18.01;83.20;96696.84;5033663;28;20576;-74
2022/06/15 06:24:14;;;;;;;4.93;3.57;;;;;;;17.88;83.60;96677.56;5031618;28;20862;-74
2022/06/15 06:26:42;;;;;;;3.37;3.07;;;;;;;18.09;81.10;96677.06;5015233;28;20525;-74
2022/06/15 06:29:13;;;;;;;3.23;2.93;;;;;;;18.44;81.26;96702.66;5029439;28;20470;-74
2022/06/15 06:31:40;;;;;;;5.60;3.00;;;;;;;18.35;80.34;96672.72;5026243;28;20557;-74
2022/06/15 06:34:07;;;;;;;5.53;3.60;;;;;;;18.35;80.44;96662.03;5033070;28;20439;-74
2022/06/15 06:36:45;;;;;;;7.40;3.00;;;;;;;18.75;81.79;96702.22;5015408;28;20469;-74
2022/06/15 06:39:21;;;;;;;6.07;3.23;;;;;;;18.78;77.85;96695.34;5032571;28;20556;-74
2022/06/15 06:41:48;;;;;;;3.77;3.30;;;;;;;18.93;76.48;96688.19;5014962;28;20476;-73
2022/06/15 06:44:14;;;;;;;3.27;3.07;;;;;;;19.27;76.74;96716.41;5031343;28;20500;-73
2022/06/15 06:46:44;;;;;;;4.60;3.23;;;;;;;19.38;74.19;96721.84;5031183;28;20893;-73
2022/06/15 06:49:12;;;;;;;4.20;3.60;;;;;;;19.59;74.94;96723.88;5031089;28;20462;-73
2022/06/15 06:51:39;;;;;;;3.23;2.93;;;;;;;19.45;74.79;96713.81;5047998;28;20600;-73
2022/06/15 06:54:08;;;;;;;6.23;3.13;;;;;;;19.07;74.58;96721.22;5031406;28;20435;-72
2022/06/15 06:56:35;;;;;;;4.30;3.90;;;;;;;19.13;74.76;96705.56;5032416;28;20505;-72
2022/06/15 06:59:03;;;;;;;4.03;3.63;;;;;;;19.55;75.45;96720.44;5030968;28;20497;-73
2022/06/15 07:01:30;;;;;;;8.43;4.40;;;;;;;19.63;72.89;96719.31;5030408;28;20525;-73
2022/06/15 07:03:57;;;;;;;4.23;3.13;;;;;;;20.14;74.05;96713.00;5011434;28;20431;-73
2022/06/15 07:06:24;;;;;;;3.77;3.47;;;;;;;20.29;70.92;96719.97;5031019;28;20458;-73
2022/06/15 07:08:51;;;;;;;5.97;3.27;;;;;;;20.10;70.39;96688.84;5014534;28;20524;-73
2022/06/15 07:11:19;;;;;;;7.30;4.20;;;;;;;20.01;71.31;96691.09;5014712;28;20442;-73
2022/06/15 07:13:46;;;;;;;5.40;3.80;;;;;;;20.38;69.45;96712.31;5014450;28;20477;-73
2022/06/15 07:16:15;;;;;;;5.60;3.30;;;;;;;20.50;69.75;96681.69;5014321;28;20988;-73
2022/06/15 07:18:46;;;;;;;5.63;3.67;;;;;;;20.66;68.33;96704.34;5032003;28;20825;-73
2022/06/15 07:21:16;;;;;;;4.37;3.60;;;;;;;20.62;68.96;96705.50;5030522;28;20478;-73
2022/06/15 07:23:45;;;;;;;4.80;3.83;;;;;;;20.42;68.98;96696.22;5030696;28;20431;-73
2022/06/15 07:26:15;;;;;;;3.90;3.50;;;;;;;20.80;68.00;96708.94;5030865;28;20438;-73
2022/06/15 07:28:43;;;;;;;3.93;3.20;;;;;;;20.96;66.83;96706.66;5029615;28;20930;-73
2022/06/15 07:31:27;;;;;;;4.97;2.70;;;;;;;21.13;66.27;96691.69;5042639;28;20442;-73
2022/06/15 07:33:54;;;;;;;3.50;2.90;;;;;;;21.45;66.47;96702.41;5037723;28;20520;-73
2022/06/15 07:36:23;;;;;;;4.30;3.73;;;;;;;21.22;65.32;96699.34;5050523;28;20437;-73
2022/06/15 07:38:52;;;;;;;3.80;3.50;;;;;;;21.80;65.08;96714.25;5033894;28;20552;-73
2022/06/15 07:41:20;;;;;;;4.90;3.77;;;;;;;21.95;63.56;96704.94;5050200;28;20679;-73
2022/06/15 07:43:46;;;;;;;8.83;3.70;;;;;;;22.18;62.81;96693.72;5050183;28;20468;-73
2022/06/15 07:46:14;;;;;;;3.77;3.33;;;;;;;22.55;62.60;96700.41;5051525;28;20422;-73
2022/06/15 07:51:35;;;;;;;4.70;3.30;;;;;;;22.10;63.66;96694.91;5050319;28;20968;-73
2022/06/15 07:54:04;;;;;;;3.97;3.00;;;;;;;22.35;63.29;96702.88;5034162;28;20441;-73
2022/06/15 07:56:31;;;;;;;6.10;3.27;;;;;;;22.71;61.51;96698.78;5049964;28;20422;-73
2022/06/15 07:58:58;;;;;;;3.90;3.47;;;;;;;22.34;60.61;96687.84;5049823;28;20964;-73
2022/06/15 08:01:25;;;;;;;3.70;3.27;;;;;;;22.50;60.75;96688.13;5051125;28;20464;-73
2022/06/15 08:03:52;;;;;;;3.50;3.20;;;;;;;22.51;60.19;96684.28;5033289;28;20483;-73
2022/06/15 08:06:19;;;;;;;5.07;3.80;;;;;;;22.96;60.21;96673.56;5049884;28;20483;-73
2022/06/15 08:08:46;;;;;;;3.80;3.57;;;;;;;22.36;60.38;96688.22;5049888;28;20453;-72
2022/06/15 08:11:13;;;;;;;5.10;3.47;;;;;;;22.57;59.04;96676.53;5033184;28;20438;-73
2022/06/15 08:13:44;;;;;;;4.63;3.30;;;;;;;22.77;59.39;96693.72;5048901;28;20444;-73
2022/06/15 08:16:13;;;;;;;8.07;3.40;;;;;;;23.32;59.17;96692.91;5033532;28;20464;-73
2022/06/15 08:18:46;;;;;;;8.50;3.77;;;;;;;23.31;57.81;96691.38;5049618;28;20448;-72
2022/06/15 08:21:22;;;;;;;3.63;3.33;;;;;;;23.34;57.04;96662.81;5050802;28;20867;-73
2022/06/15 08:23:50;;;;;;;4.40;3.87;;;;;;;23.77;56.66;96690.13;5038431;28;20449;-73
2022/06/15 08:26:21;;;;;;;3.93;3.60;;;;;;;23.69;56.95;96692.16;5029587;28;20461;-73
2022/06/15 08:28:54;;;;;;;5.23;3.43;;;;;;;23.47;56.02;96685.41;5027290;28;20494;-73
2022/06/15 08:31:21;;;;;;;3.60;3.27;;;;;;;23.37;56.26;96667.41;5050513;28;20414;-73
2022/06/15 08:33:48;;;;;;;3.60;3.30;;;;;;;23.43;55.95;96657.72;5050871;28;20429;-73
2022/06/15 08:36:19;;;;;;;4.73;3.93;;;;;;;23.77;55.43;96677.41;5033596;28;20437;-73
2022/06/15 08:38:46;;;;;;;4.80;3.73;;;;;;;23.70;55.58;96691.00;5032832;28;20519;-73
2022/06/15 08:41:36;;;;;;;6.37;3.63;;;;;;;24.00;55.25;96684.06;5050942;28;20465;-73
2022/06/15 08:44:08;;;;;;;4.40;3.20;;;;;;;23.78;55.15;96646.53;5032836;28;20954;-73
2022/06/15 08:46:40;;;;;;;4.33;3.27;;;;;;;24.13;51.76;96677.72;5049515;28;20421;-73
2022/06/15 08:49:16;;;;;;;3.40;3.10;;;;;;;24.46;51.02;96681.56;5049245;28;20499;-73
2022/06/15 08:51:48;;;;;;;4.53;3.37;;;;;;;24.46;49.37;96680.78;5049299;28;20483;-73
2022/06/15 08:54:34;;;;;;;3.70;3.40;;;;;;;24.77;49.56;96657.88;5049132;28;20853;-74
2022/06/15 08:57:14;;;;;;;3.20;2.90;;;;;;;24.80;47.76;96660.94;5049043;28;20459;-73
2022/06/15 08:59:50;;;;;;;3.40;3.10;;;;;;;24.74;44.96;96663.38;5049250;28;20460;-73
2022/06/15 09:02:44;;;;;;;3.07;2.87;;;;;;;24.34;46.91;96652.38;5050587;28;20464;-73
2022/06/15 09:05:29;;;;;;;5.30;4.00;;;;;;;24.09;48.23;96655.41;5049081;28;20456;-72
2022/06/15 09:08:05;;;;;;;3.63;3.00;;;;;;;24.30;48.78;96665.16;5032731;28;20503;-73
2022/06/15 09:10:53;;;;;;;4.03;3.63;;;;;;;24.83;47.87;96628.41;5032528;28;20453;-73
2022/06/15 09:13:25;;;;;;;4.90;2.77;;;;;;;25.31;47.32;96663.19;5050208;28;20571;-73
2022/06/15 09:16:25;;;;;;;3.30;2.83;;;;;;;24.25;46.23;96613.47;5049118;28;20453;-73
2022/06/15 09:19:06;;;;;;;3.00;2.80;;;;;;;25.25;46.23;96661.38;5041964;28;20458;-73
2022/06/15 09:21:41;;;;;;;4.60;4.00;;;;;;;25.32;46.27;96658.53;5048912;28;20527;-72
2022/06/15 09:24:24;;;;;;;5.40;3.03;;;;;;;25.31;45.57;96654.28;5037397;28;20432;-73
2022/06/15 09:26:56;;;;;;;4.37;3.00;;;;;;;25.48;44.72;96657.84;5016466;28;20442;-73
2022/06/15 09:29:31;;;;;;;3.37;3.07;;;;;;;25.22;44.96;96657.53;5029143;28;20465;-72
2022/06/15 09:32:04;;;;;;;6.10;3.13;;;;;;;25.54;44.64;96658.91;5034279;28;20425;-73
2022/06/15 09:34:38;;;;;;;3.50;3.20;;;;;;;25.28;45.08;96642.34;5032783;28;20745;-72
2022/06/15 09:37:14;;;;;;;7.67;2.73;;;;;;;25.38;45.20;96610.09;5032724;28;20499;-72
2022/06/15 09:39:41;;;;;;;4.27;3.07;;;;;;;25.88;44.76;96656.69;5036162;28;21034;-72
2022/06/15 09:42:18;;;;;;;3.90;3.60;;;;;;;25.75;44.74;96653.09;5052629;28;20472;-72
2022/06/15 09:45:03;;;;;;;3.60;2.97;;;;;;;26.14;43.40;96654.22;5052595;28;20436;-73
2022/06/15 09:47:52;;;;;;;3.20;2.90;;;;;;;25.62;42.78;96654.84;5052375;28;20445;-73
2022/06/15 09:50:21;;;;;;;5.00;2.87;;;;;;;26.38;42.84;96650.22;5035581;28;20511;-73
2022/06/15 09:53:03;;;;;;;4.67;2.70;;;;;;;26.41;42.40;96654.03;5052062;28;20425;-73
2022/06/15 09:55:47;;;;;;;4.87;3.00;;;;;;;26.69;42.39;96642.50;5052075;28;20441;-73
2022/06/15 09:58:55;;;;;;;2.50;2.30;;;;;;;26.15;40.48;96656.50;5051893;28;20441;-73
2022/06/15 10:01:28;;;;;;;3.07;2.83;;;;;;;26.35;40.07;96645.63;5051909;28;20465;-73
2022/06/15 10:03:58;;;;;;;2.50;2.40;;;;;;;26.49;40.31;96639.13;5051747;28;20487;-73
2022/06/15 10:06:42;;;;;;;2.50;2.30;;;;;;;26.78;41.20;96647.34;5035335;28;20619;-73
2022/06/15 10:09:11;;;;;;;2.60;2.40;;;;;;;26.92;39.67;96643.53;5052016;28;20488;-73
2022/06/15 10:11:50;;;;;;;3.03;2.30;;;;;;;26.43;39.71;96644.28;5035071;28;20437;-73
2022/06/15 10:14:34;;;;;;;4.60;2.90;;;;;;;26.81;40.97;96622.06;5052034;28;20981;-73
2022/06/15 10:17:28;;;;;;;4.07;3.60;;;;;;;27.10;41.69;96641.91;5051641;28;20434;-73
2022/06/15 10:19:57;;;;;;;3.00;2.40;;;;;;;27.24;37.76;96631.84;5035083;28;20480;-73
2022/06/15 10:22:29;;;;;;;3.10;2.10;;;;;;;27.62;38.02;96637.44;5034963;28;20496;-73
2022/06/15 10:24:59;;;;;;;4.20;2.57;;;;;;;27.49;37.62;96634.66;5018714;28;20450;-73
2022/06/15 10:27:32;;;;;;;2.90;1.90;;;;;;;27.53;36.03;96632.63;5015099;28;20430;-73
2022/06/15 10:29:59;;;;;;;2.63;2.40;;;;;;;27.14;36.08;96627.50;5028883;28;21296;-73
2022/06/15 10:32:26;;;;;;;3.30;2.90;;;;;;;27.61;36.02;96628.50;5014892;28;20446;-73
2022/06/15 10:35:02;;;;;;;4.00;2.40;;;;;;;27.00;35.69;96629.34;5031252;28;20477;-73
2022/06/15 10:37:31;;;;;;;2.63;1.80;;;;;;;27.44;36.47;96618.16;5031350;28;20956;-73
2022/06/15 10:40:04;;;;;;;1.70;1.60;;;;;;;27.02;36.15;96605.28;5035675;28;20442;-73
2022/06/15 10:42:41;;;;;;;4.20;2.23;;;;;;;27.75;35.41;96616.50;5033375;28;20992;-73
2022/06/15 10:45:30;;;;;;;3.33;2.10;;;;;;;27.84;33.57;96616.63;5032436;28;20532;-74
2022/06/15 10:48:02;;;;;;;2.60;2.00;;;;;;;28.46;35.33;96616.38;5031303;28;20437;-73
2022/06/15 10:50:32;;;;;;;2.07;1.87;;;;;;;28.46;34.10;96621.81;5014663;28;20454;-73
2022/06/15 10:53:33;;;;;;;4.13;2.53;;;;;;;28.50;34.59;96620.50;5031047;28;20442;-74
2022/06/15 11:02:09;;;;;;;2.10;1.90;;;;;;;28.76;33.79;96618.47;5032270;28;20466;-73
2022/06/15 11:04:46;;;;;;;3.60;2.03;;;;;;;28.09;34.29;96615.16;5030845;28;20448;-73
2022/06/15 11:07:31;;;;;;;2.70;1.90;;;;;;;28.07;33.93;96602.00;5031148;28;20465;-73
2022/06/15 11:09:58;;;;;;;2.00;1.80;;;;;;;28.42;34.24;96597.41;5031097;28;20508;-73
2022/06/15 11:12:29;;;;;;;6.27;1.67;;;;;;;28.04;34.28;96575.63;5030914;28;20473;-73
2022/06/15 11:15:24;;;;;;;2.50;2.23;;;;;;;28.98;34.24;96587.84;5032697;28;20438;-73
2022/06/15 11:18:05;;;;;;;2.47;1.90;;;;;;;29.47;32.30;96603.66;5032182;28;20449;-73
2022/06/15 11:20:41;;;;;;;3.03;1.90;;;;;;;29.47;32.07;96601.72;5030797;28;20473;-73
2022/06/15 11:23:24;;;;;;;3.60;2.00;;;;;;;29.54;32.63;96600.69;5014938;28;20492;-73
2022/06/15 11:29:36;;;;;;;3.50;1.93;;;;;;;29.79;32.93;96597.81;5028138;28;20467;-74
2022/06/15 11:32:54;;;;;;;2.30;2.10;;;;;;;29.61;31.55;96605.88;5021856;28;20445;-74
2022/06/15 11:35:44;;;;;;;2.00;1.60;;;;;;;30.05;31.00;96600.34;5029778;28;20445;-74
2022/06/15 11:38:28;;;;;;;2.13;1.80;;;;;;;29.73;31.49;96603.06;5051868;28;20445;-74
2022/06/15 11:41:13;;;;;;;2.03;1.83;;;;;;;29.71;32.31;96593.84;5051780;28;20458;-73
2022/06/15 11:43:43;;;;;;;3.00;2.17;;;;;;;29.98;32.67;96596.69;5035396;28;20575;-75
2022/06/15 11:46:33;;;;;;;4.07;2.40;;;;;;;30.55;32.21;96602.66;5052903;28;20832;-74
2022/06/15 11:49:18;;;;;;;2.10;1.90;;;;;;;30.41;30.92;96586.88;5051321;28;20489;-74
2022/06/15 11:52:17;;;;;;;1.93;1.70;;;;;;;29.30;31.91;96584.78;5051022;28;20449;-74
2022/06/15 11:55:02;;;;;;;2.27;2.07;;;;;;;29.37;33.15;96572.84;5051620;28;20440;-75
2022/06/15 11:57:53;;;;;;;2.67;2.47;;;;;;;29.68;31.42;96578.38;5052007;28;20441;-75
2022/06/15 12:00:37;;;;;;;2.43;2.23;;;;;;;30.01;31.58;96571.25;5052554;28;20500;-74
2022/06/15 12:03:29;;;;;;;2.43;1.53;;;;;;;29.94;30.58;96581.69;5034583;28;20437;-73
2022/06/15 12:06:33;;;;;;;6.30;1.60;;;;;;;29.97;30.14;96578.06;5050658;28;20442;-74
2022/06/15 12:09:00;;;;;;;1.50;1.40;;;;;;;29.71;30.87;96575.50;5020754;28;20500;-74
2022/06/15 12:14:31;;;;;;;2.37;2.03;;;;;;;30.00;29.44;96575.19;5030046;28;20521;-75
2022/06/15 12:17:08;;;;;;;9.23;1.70;;;;;;;30.50;29.79;96575.22;5030096;28;20465;-75